Terminal Aerodrome Forecast
Issued by NWS Jacksonville, FL

Home | Current Version | Previous Version | Text Only | Print | Product List | Glossary On
Versions: 1 2 3 4 5 6 7 8 9 10 11 12 13 14 15 16 17 18 19 20 21 22 23 24 25 26 27 28
000
FTUS42 KJAX 190900 AAB
TAFSSI
TAF AMD
KSSI 190921Z 1909/2006 VRB06KT P6SM VCSH SCT010 BKN035 OVC060
      TEMPO 1909/1912 2SM -SHRA BKN003
     FM191200 VRB06KT P6SM VCSH SCT010 BKN015
      TEMPO 1912/1916 BKN005
     FM191600 02012KT P6SM VCSH SCT010 BKN020
     FM200200 36013G20KT P6SM SCT008 BKN010=

USA.gov is the U.S. government's official web portal to all federal, state and local government web resources and services.